createdAt,value
2024-03-23T00:01:31.743Z,92.70
2024-03-23T00:06:38.279Z,92.74
2024-03-23T00:11:40.055Z,92.46
2024-03-23T00:16:41.648Z,92.61
2024-03-23T00:21:43.222Z,92.94
2024-03-23T00:26:44.831Z,93.37
2024-03-23T00:31:46.444Z,94.43
2024-03-23T00:36:48.287Z,95.03
2024-03-23T00:41:50.031Z,94.94
2024-03-23T00:46:51.690Z,95.00
2024-03-23T00:51:53.466Z,94.44
2024-03-23T00:56:55.184Z,93.91
2024-03-23T01:01:56.851Z,94.09
2024-03-23T01:06:58.418Z,93.55
2024-03-23T01:12:00.271Z,94.82
2024-03-23T01:22:37.360Z,95.16
2024-03-23T01:27:39.022Z,96.17
2024-03-23T01:32:40.994Z,95.59
2024-03-23T01:37:42.712Z,94.10
2024-03-23T01:42:56.519Z,93.10
2024-03-23T01:47:58.716Z,93.14
2024-03-23T01:53:06.565Z,95.57
2024-03-23T01:58:08.410Z,95.10
2024-03-23T02:03:29.182Z,95.14
2024-03-23T02:08:32.153Z,97.59
2024-03-23T02:13:36.436Z,99.32
2024-03-23T02:18:38.138Z,100.00
2024-03-23T02:23:39.854Z,100.00
2024-03-23T02:28:41.550Z,100.00
2024-03-23T02:33:43.189Z,100.00
2024-03-23T02:38:44.855Z,100.00
2024-03-23T02:43:46.487Z,100.00
2024-03-23T02:48:50.204Z,100.00
2024-03-23T02:53:52.088Z,100.00
2024-03-23T02:58:53.777Z,100.00
2024-03-23T03:04:01.952Z,100.00
2024-03-23T03:09:03.900Z,100.00
2024-03-23T03:14:08.402Z,100.00
2024-03-23T03:19:13.136Z,100.00
2024-03-23T03:24:15.080Z,100.00
2024-03-23T03:29:17.283Z,100.00
2024-03-23T03:34:18.980Z,100.00
2024-03-23T03:39:20.749Z,100.00
2024-03-23T03:44:22.585Z,100.00
2024-03-23T03:49:24.285Z,100.00
2024-03-23T03:54:26.179Z,100.00
2024-03-23T03:59:27.842Z,100.00
2024-03-23T04:04:29.533Z,100.00
2024-03-23T04:09:31.672Z,100.00
2024-03-23T04:14:33.292Z,100.00
2024-03-23T04:19:34.926Z,100.00
2024-03-23T04:24:43.314Z,100.00
2024-03-23T04:29:53.930Z,100.00
2024-03-23T04:34:55.644Z,100.00
2024-03-23T04:39:57.331Z,100.00
2024-03-23T04:44:59.095Z,100.00
2024-03-23T04:50:02.353Z,100.00
2024-03-23T04:55:04.560Z,100.00
2024-03-23T06:25:27.308Z,100.00
2024-03-23T06:30:29.981Z,100.00
2024-03-23T06:35:31.257Z,100.00
2024-03-23T07:05:40.410Z,96.02
2024-03-23T07:10:41.715Z,92.04
2024-03-23T07:15:42.757Z,90.35
2024-03-23T12:26:11.244Z,33.42
2024-03-23T12:31:13.254Z,33.39
2024-03-23T12:36:15.682Z,33.00
2024-03-23T12:41:17.673Z,33.58
2024-03-23T12:46:20.029Z,33.14
2024-03-23T12:51:22.318Z,32.71
2024-03-23T12:56:23.959Z,32.68
2024-03-23T13:01:25.665Z,32.62
2024-03-23T13:06:28.669Z,33.34
2024-03-23T13:11:31.259Z,33.37
2024-03-23T13:16:33.275Z,33.39
2024-03-23T13:21:35.113Z,33.62
2024-03-23T13:26:36.896Z,35.68
2024-03-23T13:31:38.540Z,40.18
2024-03-23T13:36:40.207Z,36.42
2024-03-23T13:41:46.030Z,-1.00
2024-03-23T13:46:48.307Z,-1.00
